createdAt,value
2019-02-10T00:02:59.107Z,6.34
2019-02-10T00:06:03.630Z,6.24
2019-02-10T00:09:08.067Z,6.26
2019-02-10T00:12:12.390Z,6.22
2019-02-10T00:15:19.172Z,6.26
2019-02-10T00:18:23.933Z,6.28
2019-02-10T00:21:30.389Z,6.22
2019-02-10T00:24:34.792Z,6.23
2019-02-10T00:27:39.107Z,6.28
2019-02-10T00:30:43.389Z,6.43
2019-02-10T00:33:47.773Z,6.28
2019-02-10T00:36:54.070Z,6.34
2019-02-10T00:39:58.387Z,6.40
2019-02-10T00:43:04.873Z,6.34
2019-02-10T00:46:09.178Z,6.29
2019-02-10T00:49:13.509Z,6.24
2019-02-10T00:52:17.784Z,6.35
2019-02-10T00:55:22.134Z,6.28
2019-02-10T00:58:26.402Z,6.36
2019-02-10T01:01:30.846Z,6.38
2019-02-10T01:04:38.122Z,6.44
2019-02-10T01:07:42.468Z,6.39
2019-02-10T01:10:46.776Z,6.45
2019-02-10T01:13:51.068Z,6.35
2019-02-10T01:16:55.406Z,6.38
2019-02-10T01:19:59.657Z,6.29
2019-02-10T01:23:05.034Z,6.30
2019-02-10T01:26:09.728Z,6.35
2019-02-10T01:29:16.261Z,6.24
2019-02-10T01:32:20.654Z,6.27
2019-02-10T01:35:25.034Z,6.19
2019-02-10T01:38:33.940Z,6.07
2019-02-10T01:41:38.217Z,6.09
2019-02-10T01:44:42.547Z,6.01
2019-02-10T01:47:49.680Z,6.01
2019-02-10T01:50:56.311Z,6.05
2019-02-10T01:54:00.598Z,6.01
2019-02-10T01:57:04.902Z,6.00
2019-02-10T02:00:11.177Z,6.04
2019-02-10T02:03:15.456Z,6.18
2019-02-10T02:06:19.750Z,6.08
2019-02-10T02:09:24.442Z,6.13
2019-02-10T02:12:30.500Z,6.09
2019-02-10T02:15:35.210Z,6.34
2019-02-10T02:18:39.503Z,6.41
2019-02-10T02:21:43.875Z,6.40
2019-02-10T02:24:48.158Z,6.44
2019-02-10T02:27:52.718Z,6.51
2019-02-10T02:30:59.075Z,6.44
2019-02-10T02:34:03.396Z,6.67
2019-02-10T02:37:08.435Z,6.56
2019-02-10T02:40:12.946Z,6.52
2019-02-10T02:43:17.217Z,6.47
2019-02-10T02:46:21.586Z,6.53
2019-02-10T02:49:25.857Z,6.53
2019-02-10T02:52:32.977Z,6.47
2019-02-10T02:55:37.447Z,6.52
2019-02-10T02:58:41.721Z,6.52
2019-02-10T03:01:48.050Z,6.61
2019-02-10T03:04:52.455Z,6.56
2019-02-10T03:07:56.716Z,6.67
2019-02-10T03:11:01.313Z,6.77
2019-02-10T03:14:10.105Z,6.80
2019-02-10T03:17:14.613Z,6.87
2019-02-10T03:20:21.965Z,6.84
2019-02-10T03:23:26.227Z,7.07
2019-02-10T03:26:30.522Z,6.96
2019-02-10T03:29:36.831Z,6.79
2019-02-10T03:32:42.239Z,6.90
2019-02-10T03:35:46.621Z,6.91
2019-02-10T03:38:53.466Z,7.06
2019-02-10T03:41:57.755Z,7.00
2019-02-10T03:45:02.030Z,6.99
2019-02-10T03:48:06.436Z,6.98
2019-02-10T03:51:10.728Z,7.15
2019-02-10T03:54:15.020Z,7.01
2019-02-10T03:57:25.421Z,7.19
2019-02-10T04:00:29.656Z,7.28
2019-02-10T04:03:33.941Z,7.07
2019-02-10T04:06:38.509Z,6.98
2019-02-10T04:09:42.898Z,7.12
2019-02-10T04:12:47.529Z,7.03
2019-02-10T04:15:51.880Z,7.06
2019-02-10T04:18:56.130Z,7.08
2019-02-10T04:22:00.409Z,7.07
2019-02-10T04:25:05.209Z,7.01
2019-02-10T04:28:09.506Z,6.96
2019-02-10T04:31:13.768Z,6.98
2019-02-10T04:34:18.067Z,6.88
2019-02-10T04:37:22.389Z,6.97
2019-02-10T04:40:26.784Z,6.93
2019-02-10T04:43:31.313Z,7.07
2019-02-10T04:46:35.778Z,6.92
2019-02-10T04:49:40.188Z,6.88
2019-02-10T04:52:47.542Z,6.87
2019-02-10T04:56:20.528Z,6.95
2019-02-10T04:59:24.820Z,6.82
2019-02-10T05:02:29.223Z,6.83
2019-02-10T05:05:35.424Z,6.89
2019-02-10T05:08:39.729Z,6.87
2019-02-10T05:11:44.004Z,6.86
2019-02-10T05:14:48.388Z,6.78
2019-02-10T05:17:54.709Z,6.93
2019-02-10T05:20:59.117Z,6.87
2019-02-10T05:24:03.955Z,6.86
2019-02-10T05:27:08.365Z,6.95
2019-02-10T05:30:12.689Z,6.79
2019-02-10T05:33:16.989Z,6.91
2019-02-10T05:36:21.288Z,6.81
2019-02-10T05:39:25.594Z,6.75
2019-02-10T05:42:29.961Z,6.73
2019-02-10T05:45:35.337Z,6.77
2019-02-10T05:48:40.074Z,6.78
2019-02-10T05:51:44.673Z,6.68
2019-02-10T05:54:51.136Z,6.66
2019-02-10T05:57:55.420Z,6.65
2019-02-10T06:01:36.309Z,6.53
2019-02-10T06:04:42.351Z,6.46
2019-02-10T06:07:46.765Z,6.49
2019-02-10T06:10:51.084Z,6.57
2019-02-10T06:13:55.367Z,6.60
2019-02-10T06:16:59.661Z,6.59
2019-02-10T06:20:04.332Z,6.61
2019-02-10T06:23:08.620Z,6.44
2019-02-10T06:26:13.023Z,6.55
2019-02-10T06:29:17.406Z,6.57
2019-02-10T06:32:21.709Z,6.56
2019-02-10T06:35:28.297Z,6.61
2019-02-10T06:38:33.069Z,6.66
2019-02-10T06:41:37.373Z,6.58
2019-02-10T06:44:41.695Z,6.57
2019-02-10T06:47:48.069Z,6.49
2019-02-10T06:50:52.382Z,6.37
2019-02-10T06:53:56.682Z,6.33
2019-02-10T06:57:00.998Z,6.48
2019-02-10T07:00:31.982Z,6.30
2019-02-10T07:03:57.972Z,6.28
2019-02-10T07:07:04.286Z,6.35
2019-02-10T07:10:08.820Z,6.34
2019-02-10T07:13:17.589Z,6.37
2019-02-10T07:17:05.430Z,6.44
2019-02-10T07:20:43.740Z,6.45
2019-02-10T07:23:58.294Z,6.60
2019-02-10T07:27:30.286Z,6.44
2019-02-10T07:30:41.713Z,6.62
2019-02-10T07:34:31.456Z,6.49
2019-02-10T07:38:19.514Z,6.51
2019-02-10T07:42:03.746Z,6.47
2019-02-10T07:45:43.900Z,6.41
2019-02-10T07:49:11.486Z,6.47
2019-02-10T07:53:06.380Z,6.42
2019-02-10T07:56:54.421Z,6.43
2019-02-10T08:00:25.673Z,6.52
2019-02-10T08:04:03.894Z,6.43
2019-02-10T08:07:36.369Z,6.55
2019-02-10T08:11:15.172Z,6.52
2019-02-10T08:14:52.223Z,6.46
2019-02-10T08:18:43.756Z,6.47
2019-02-10T08:22:14.007Z,6.50
2019-02-10T08:25:45.927Z,6.50
2019-02-10T08:29:18.210Z,6.50
2019-02-10T08:32:48.435Z,6.46
2019-02-10T08:36:21.523Z,6.43
2019-02-10T08:39:50.527Z,6.36
2019-02-10T08:43:41.671Z,6.46
2019-02-10T08:47:08.325Z,6.43
2019-02-10T08:51:02.592Z,6.49
2019-02-10T08:54:07.413Z,6.56
2019-02-10T08:57:11.842Z,6.45
2019-02-10T09:00:16.153Z,6.45
2019-02-10T09:03:20.413Z,6.48
2019-02-10T09:06:24.727Z,6.57
2019-02-10T09:09:29.027Z,6.57
2019-02-10T09:12:33.320Z,6.65
2019-02-10T09:15:37.671Z,6.68
2019-02-10T09:18:41.954Z,6.70
2019-02-10T09:21:46.362Z,6.64
2019-02-10T09:24:50.747Z,6.68
2019-02-10T09:27:55.104Z,6.68
2019-02-10T09:30:59.462Z,6.67
2019-02-10T09:34:03.833Z,6.70
2019-02-10T09:37:08.110Z,6.75
2019-02-10T09:40:12.822Z,6.82
2019-02-10T09:43:17.112Z,6.82
2019-02-10T09:46:21.623Z,6.73
2019-02-10T09:49:25.903Z,6.82
2019-02-10T09:52:31.972Z,6.82
2019-02-10T09:55:36.273Z,6.83
2019-02-10T09:58:40.586Z,6.89
2019-02-10T10:01:44.886Z,6.87
2019-02-10T10:04:49.235Z,6.96
2019-02-10T10:07:53.568Z,6.91
2019-02-10T10:10:57.862Z,6.97
2019-02-10T10:14:02.164Z,7.14
2019-02-10T10:17:06.594Z,7.00
2019-02-10T10:20:12.809Z,7.04
2019-02-10T10:23:17.140Z,7.07
2019-02-10T10:26:21.437Z,7.10
2019-02-10T10:29:25.742Z,7.09
2019-02-10T10:32:31.128Z,7.02
2019-02-10T10:35:35.505Z,7.09
2019-02-10T10:38:39.984Z,7.08
2019-02-10T10:41:44.373Z,7.09
2019-02-10T10:44:48.672Z,7.10
2019-02-10T10:47:52.972Z,7.04
2019-02-10T10:50:57.274Z,7.01
2019-02-10T10:54:01.685Z,6.98
2019-02-10T10:57:06.290Z,7.02
2019-02-10T11:00:11.935Z,6.99
2019-02-10T11:03:17.287Z,6.94
2019-02-10T11:06:21.724Z,7.02
2019-02-10T11:09:26.048Z,6.95
2019-02-10T11:12:30.461Z,6.99
2019-02-10T11:15:34.747Z,6.96
2019-02-10T11:18:39.036Z,6.97
2019-02-10T11:21:43.447Z,7.04
2019-02-10T11:24:52.522Z,7.00
2019-02-10T11:27:57.017Z,6.96
2019-02-10T11:31:01.653Z,6.87
2019-02-10T11:34:05.957Z,6.90
2019-02-10T11:37:10.341Z,6.94
2019-02-10T11:40:14.805Z,6.94
2019-02-10T11:43:25.316Z,6.98
2019-02-10T11:46:32.565Z,6.93
2019-02-10T11:49:37.425Z,6.95
2019-02-10T11:52:50.840Z,6.92
2019-02-10T11:56:03.942Z,6.90
2019-02-10T11:59:17.951Z,6.92
2019-02-10T12:02:37.935Z,6.88
2019-02-10T12:05:41.875Z,6.89
2019-02-10T12:08:51.873Z,6.93
2019-02-10T12:11:57.608Z,6.91
2019-02-10T12:15:02.435Z,6.95
2019-02-10T12:18:07.162Z,7.01
2019-02-10T12:21:11.896Z,6.93
2019-02-10T12:24:16.550Z,6.90
2019-02-10T12:27:21.153Z,6.85
2019-02-10T12:30:25.789Z,6.96
2019-02-10T12:33:30.308Z,6.92
2019-02-10T12:36:35.108Z,6.82
2019-02-10T12:39:40.038Z,6.67
2019-02-10T12:42:44.612Z,6.45
2019-02-10T12:45:49.913Z,6.59
2019-02-10T12:48:54.196Z,6.54
2019-02-10T12:52:01.487Z,6.47
2019-02-10T12:55:06.595Z,6.34
2019-02-10T12:58:10.978Z,6.31
2019-02-10T13:01:15.282Z,6.23
2019-02-10T13:04:19.741Z,6.13
2019-02-10T13:07:24.020Z,6.16
2019-02-10T13:10:29.097Z,6.12
2019-02-10T13:13:33.467Z,6.01
2019-02-10T13:16:37.842Z,5.94
2019-02-10T13:19:42.158Z,5.84
2019-02-10T13:22:46.476Z,5.96
2019-02-10T13:25:50.791Z,5.71
2019-02-10T13:28:55.093Z,5.79
2019-02-10T13:31:59.486Z,5.75
2019-02-10T13:35:04.109Z,5.65
2019-02-10T13:38:08.415Z,5.60
2019-02-10T13:41:12.691Z,5.60
2019-02-10T13:44:17.230Z,5.49
2019-02-10T13:47:21.538Z,5.65
2019-02-10T13:50:26.048Z,5.48
2019-02-10T13:53:30.367Z,5.48
2019-02-10T13:56:36.634Z,5.65
2019-02-10T13:59:41.015Z,5.66
2019-02-10T14:02:45.650Z,5.56
2019-02-10T14:05:49.935Z,5.53
2019-02-10T14:08:54.243Z,5.48
2019-02-10T14:11:58.538Z,5.46
2019-02-10T14:15:02.845Z,5.54
2019-02-10T14:18:08.806Z,5.41
2019-02-10T14:21:13.192Z,5.37
2019-02-10T14:24:17.934Z,5.35
2019-02-10T14:27:22.383Z,5.38
2019-02-10T14:30:26.677Z,5.29
2019-02-10T14:33:38.869Z,5.26
2019-02-10T14:36:41.917Z,5.31
2019-02-10T14:39:46.372Z,5.32
2019-02-10T14:42:50.652Z,5.40
2019-02-10T14:45:55.052Z,5.38
2019-02-10T14:48:59.472Z,5.32
2019-02-10T14:52:03.806Z,5.37
2019-02-10T14:55:08.317Z,5.36
2019-02-10T14:58:12.619Z,5.38
2019-02-10T15:01:16.921Z,5.31
2019-02-10T15:04:23.616Z,5.25
2019-02-10T15:07:28.163Z,5.35
2019-02-10T15:10:32.471Z,5.33
2019-02-10T15:13:36.996Z,5.28
2019-02-10T15:16:41.315Z,5.17
2019-02-10T15:19:45.683Z,5.28
2019-02-10T15:22:50.211Z,5.27
2019-02-10T15:25:55.793Z,5.29
2019-02-10T15:29:01.838Z,5.26
2019-02-10T15:32:06.322Z,5.15
2019-02-10T15:35:10.718Z,5.12
2019-02-10T15:38:15.029Z,5.21
2019-02-10T15:41:21.345Z,5.07
2019-02-10T15:44:25.650Z,4.97
2019-02-10T15:47:29.948Z,5.01
2019-02-10T15:50:35.729Z,5.09
2019-02-10T15:53:40.050Z,5.07
2019-02-10T15:56:44.572Z,5.14
2019-02-10T15:59:48.876Z,5.03
2019-02-10T16:02:53.203Z,5.01
2019-02-10T16:05:57.576Z,4.90
2019-02-10T16:09:02.038Z,4.89
2019-02-10T16:12:06.340Z,5.04
2019-02-10T16:15:11.351Z,4.92
2019-02-10T16:18:15.650Z,4.88
2019-02-10T16:21:20.063Z,5.00
2019-02-10T16:24:24.467Z,4.99
2019-02-10T16:27:29.023Z,4.97
2019-02-10T16:30:33.436Z,4.99
2019-02-10T16:33:37.877Z,4.83
2019-02-10T16:36:45.460Z,4.99
2019-02-10T16:39:50.035Z,5.01
2019-02-10T16:42:57.253Z,4.99
2019-02-10T16:46:01.585Z,4.83
2019-02-10T16:49:05.960Z,4.88
2019-02-10T16:52:13.359Z,4.96
2019-02-10T16:55:17.803Z,4.86
2019-02-10T16:58:22.139Z,4.74
2019-02-10T17:01:26.757Z,4.84
2019-02-10T17:04:31.218Z,4.76
2019-02-10T17:07:35.696Z,4.89
2019-02-10T17:10:42.860Z,4.79
2019-02-10T17:13:49.873Z,4.72
2019-02-10T17:16:54.310Z,4.68
2019-02-10T17:19:58.663Z,4.66
2019-02-10T17:23:02.967Z,4.68
2019-02-10T17:26:07.252Z,4.86
2019-02-10T17:29:11.553Z,4.86
2019-02-10T17:32:15.970Z,4.87
2019-02-10T17:35:20.584Z,4.91
2019-02-10T17:38:26.602Z,4.94
2019-02-10T17:41:35.185Z,4.95
2019-02-10T17:44:39.486Z,4.88
2019-02-10T17:47:43.801Z,4.78
2019-02-10T17:50:49.567Z,4.83
2019-02-10T17:53:54.001Z,4.84
2019-02-10T17:56:58.354Z,4.72
2019-02-10T18:00:02.907Z,4.74
2019-02-10T18:03:07.200Z,4.96
2019-02-10T18:06:11.598Z,4.88
2019-02-10T18:09:15.981Z,4.80
2019-02-10T18:12:20.434Z,4.80
2019-02-10T18:15:42.674Z,4.85
2019-02-10T18:19:03.788Z,4.73
2019-02-10T18:22:24.186Z,4.86
2019-02-10T18:25:56.424Z,4.80
2019-02-10T18:29:25.819Z,4.99
2019-02-10T18:32:58.759Z,4.95
2019-02-10T18:36:37.505Z,4.74
2019-02-10T18:39:52.643Z,4.94
2019-02-10T18:43:14.852Z,4.93
2019-02-10T18:46:32.494Z,4.81
2019-02-10T18:49:59.132Z,4.94
2019-02-10T18:53:18.865Z,5.05
2019-02-10T18:56:36.311Z,4.99
2019-02-10T19:00:04.997Z,4.96
2019-02-10T19:03:40.906Z,4.97
2019-02-10T19:07:10.159Z,5.03
2019-02-10T19:10:36.600Z,5.03
2019-02-10T19:13:59.902Z,5.11
2019-02-10T19:17:22.177Z,5.13
2019-02-10T19:20:45.820Z,5.12
2019-02-10T19:24:09.365Z,5.07
2019-02-10T19:27:31.757Z,5.08
2019-02-10T19:30:55.537Z,5.20
2019-02-10T19:34:19.190Z,5.10
2019-02-10T19:37:58.328Z,5.19
2019-02-10T19:41:21.944Z,5.18
2019-02-10T19:44:54.755Z,5.25
2019-02-10T19:48:21.286Z,5.26
2019-02-10T19:52:03.616Z,5.27
2019-02-10T19:55:33.747Z,5.29
2019-02-10T19:59:09.621Z,5.34
2019-02-10T20:02:22.882Z,5.32
2019-02-10T20:05:45.389Z,5.37
2019-02-10T20:09:09.066Z,5.49
2019-02-10T20:12:44.828Z,5.48
2019-02-10T20:15:58.360Z,5.54
2019-02-10T20:19:15.200Z,5.64
2019-02-10T20:22:28.724Z,5.71
2019-02-10T20:25:51.005Z,5.67
2019-02-10T20:29:23.840Z,5.74
2019-02-10T20:32:37.087Z,5.73
2019-02-10T20:36:01.072Z,5.82
2019-02-10T20:39:25.830Z,5.78
2019-02-10T20:42:55.011Z,5.76
2019-02-10T20:46:16.180Z,5.78
2019-02-10T20:49:29.809Z,5.80
2019-02-10T20:52:52.874Z,5.75
2019-02-10T20:56:11.748Z,5.68
2019-02-10T20:59:38.204Z,5.69
2019-02-10T21:03:07.897Z,5.50
2019-02-10T21:06:34.326Z,5.37
2019-02-10T21:09:56.432Z,5.26
2019-02-10T21:13:22.883Z,5.20
2019-02-10T21:16:44.961Z,5.12
2019-02-10T21:20:08.417Z,5.19
2019-02-10T21:23:31.669Z,5.15
2019-02-10T21:27:04.034Z,5.05
2019-02-10T21:30:31.926Z,4.94
2019-02-10T21:33:52.272Z,4.92
2019-02-10T21:37:06.724Z,4.84
2019-02-10T21:40:32.068Z,4.87
2019-02-10T21:43:42.509Z,4.72
2019-02-10T21:47:04.225Z,4.77
2019-02-10T21:50:08.738Z,4.69
2019-02-10T21:53:13.059Z,4.70
2019-02-10T21:56:17.336Z,4.54
2019-02-10T21:59:21.855Z,4.49
2019-02-10T22:02:26.407Z,4.40
2019-02-10T22:05:30.723Z,4.32
2019-02-10T22:08:35.106Z,4.30
2019-02-10T22:11:39.401Z,4.21
2019-02-10T22:14:43.805Z,4.16
2019-02-10T22:17:48.306Z,4.14
2019-02-10T22:20:52.627Z,4.10
2019-02-10T22:23:57.034Z,4.07
2019-02-10T22:27:01.439Z,3.99
2019-02-10T22:30:08.159Z,3.98
2019-02-10T22:33:14.286Z,3.96
2019-02-10T22:36:18.569Z,4.04
2019-02-10T22:39:22.919Z,4.15
2019-02-10T22:42:27.239Z,4.18
2019-02-10T22:45:31.546Z,4.23
2019-02-10T22:48:37.145Z,4.29
2019-02-10T22:51:41.527Z,4.29
2019-02-10T22:54:45.818Z,4.28
2019-02-10T22:57:50.240Z,4.43
2019-02-10T23:01:02.068Z,4.39
2019-02-10T23:04:06.430Z,4.39
2019-02-10T23:07:11.060Z,4.42
2019-02-10T23:10:15.441Z,4.43
2019-02-10T23:13:19.717Z,4.45
2019-02-10T23:16:24.103Z,4.43
2019-02-10T23:19:28.392Z,4.54
2019-02-10T23:22:34.733Z,4.51
2019-02-10T23:25:39.031Z,4.52
2019-02-10T23:28:43.539Z,4.56
2019-02-10T23:31:48.819Z,4.59
2019-02-10T23:34:53.154Z,4.71
2019-02-10T23:38:00.343Z,4.70
2019-02-10T23:41:04.625Z,4.72
2019-02-10T23:44:09.029Z,4.75
2019-02-10T23:47:13.352Z,4.78
2019-02-10T23:50:17.630Z,4.92
2019-02-10T23:53:21.920Z,4.92
2019-02-10T23:56:26.195Z,4.99
2019-02-10T23:59:30.742Z,5.02
